Time;durP1;ratioP1;P1;durP2;ratioP2;P2;SDS_P1;SDS_P2;PMS_P1;PMS_P2;Temp;Humidity;BMP_temperature;BMP_pressure;BME280_temperature;BME280_humidity;BME280_pressure;Samples;Min_cycle;Max_cycle;Signal;HPM_P1;HPM_P2
2021/07/05 00:00:46;;;;;;;3.50;1.23;;;17.10;78.30;;;;;;5059957;28;20026;-86
2021/07/05 00:03:11;;;;;;;1.98;1.10;;;17.10;78.30;;;;;;5031820;28;20051;-85
2021/07/05 00:05:37;;;;;;;1.70;0.98;;;17.10;79.20;;;;;;5060198;28;20038;-86
2021/07/05 00:08:03;;;;;;;3.83;1.10;;;17.10;79.50;;;;;;5027678;28;20045;-85
2021/07/05 00:10:29;;;;;;;3.03;1.30;;;17.10;79.30;;;;;;5060226;28;20033;-86
2021/07/05 00:12:56;;;;;;;3.47;1.30;;;17.10;79.50;;;;;;5028070;28;20037;-86
2021/07/05 00:15:25;;;;;;;1.70;1.08;;;17.10;78.90;;;;;;5029127;28;20024;-85
2021/07/05 00:17:54;;;;;;;2.70;1.42;;;17.10;79.20;;;;;;5061582;28;20029;-84
2021/07/05 00:20:20;;;;;;;1.83;1.00;;;17.20;79.40;;;;;;5028032;28;20478;-84
2021/07/05 00:22:46;;;;;;;3.15;1.30;;;17.20;79.50;;;;;;5029305;28;20022;-88
2021/07/05 00:25:12;;;;;;;2.10;1.15;;;17.10;79.70;;;;;;5029844;28;20367;-87
2021/07/05 00:27:38;;;;;;;1.98;1.08;;;17.10;79.20;;;;;;5028279;28;20112;-87
2021/07/05 00:30:05;;;;;;;1.80;1.20;;;17.00;79.70;;;;;;5063871;28;20076;-87
2021/07/05 00:32:31;;;;;;;2.45;1.20;;;17.00;79.90;;;;;;5059944;28;20117;-85
2021/07/05 00:34:57;;;;;;;1.83;0.98;;;17.00;80.20;;;;;;5029544;28;20509;-84
2021/07/05 00:37:23;;;;;;;2.05;1.10;;;17.00;80.00;;;;;;5031517;28;20036;-84
2021/07/05 00:39:48;;;;;;;4.75;1.48;;;17.00;80.90;;;;;;5031986;28;20034;-84
2021/07/05 00:42:14;;;;;;;3.38;0.90;;;17.00;80.10;;;;;;5034740;28;20029;-84
2021/07/05 00:44:40;;;;;;;2.83;1.20;;;16.90;80.60;;;;;;5065347;28;20478;-84
2021/07/05 00:47:05;;;;;;;1.85;1.00;;;16.90;80.30;;;;;;5063331;28;20109;-84
2021/07/05 00:49:31;;;;;;;2.30;0.90;;;16.90;82.30;;;;;;5063479;28;20041;-86
2021/07/05 00:51:57;;;;;;;2.97;1.33;;;16.80;81.20;;;;;;5029973;28;20093;-86
2021/07/05 00:54:23;;;;;;;3.13;1.15;;;16.70;83.10;;;;;;5034046;28;20524;-87
2021/07/05 00:56:48;;;;;;;8.60;1.50;;;16.60;85.00;;;;;;5064217;28;20056;-87
2021/07/05 00:59:16;;;;;;;4.43;1.40;;;16.40;86.40;;;;;;5030629;28;20379;-82
2021/07/05 01:01:42;;;;;;;2.47;0.98;;;16.00;90.60;;;;;;5032551;28;20025;-82
2021/07/05 01:04:08;;;;;;;4.63;0.90;;;15.80;92.20;;;;;;5030898;28;20030;-83
2021/07/05 01:06:34;;;;;;;3.53;0.90;;;15.70;92.40;;;;;;5031220;28;20044;-83
2021/07/05 01:09:00;;;;;;;4.50;0.82;;;15.70;93.10;;;;;;5033363;28;20037;-82
2021/07/05 01:11:26;;;;;;;2.47;0.90;;;15.70;93.60;;;;;;5032484;28;20607;-80
2021/07/05 01:13:52;;;;;;;1.80;0.70;;;15.50;93.60;;;;;;5031245;28;20022;-81
2021/07/05 01:16:17;;;;;;;1.02;0.60;;;15.60;93.20;;;;;;5030911;28;20033;-83
2021/07/05 01:18:43;;;;;;;0.70;0.60;;;15.60;93.20;;;;;;5031465;28;20025;-82
2021/07/05 01:21:09;;;;;;;1.13;0.73;;;15.60;92.90;;;;;;5034192;28;20029;-84
2021/07/05 01:23:34;;;;;;;1.52;0.73;;;15.70;92.60;;;;;;5062727;28;20080;-84
2021/07/05 01:26:00;;;;;;;1.40;0.50;;;15.60;92.20;;;;;;5062783;28;20068;-85
2021/07/05 01:28:26;;;;;;;1.17;0.68;;;15.60;92.40;;;;;;5062818;28;20041;-83
2021/07/05 01:30:52;;;;;;;0.73;0.60;;;15.70;92.10;;;;;;5030897;28;20022;-82
2021/07/05 01:33:17;;;;;;;1.63;0.77;;;15.70;91.90;;;;;;5033205;28;20104;-83
2021/07/05 01:35:45;;;;;;;1.73;0.80;;;15.60;91.40;;;;;;5030104;28;20121;-81
2021/07/05 01:38:14;;;;;;;1.00;0.80;;;15.60;91.90;;;;;;5062702;28;20033;-81
2021/07/05 01:40:43;;;;;;;0.98;0.60;;;15.50;91.60;;;;;;5030531;28;20022;-81
2021/07/05 01:43:09;;;;;;;2.20;0.55;;;15.50;91.50;;;;;;5062858;28;20026;-81
2021/07/05 01:45:35;;;;;;;1.08;0.70;;;15.40;91.80;;;;;;5030213;28;20097;-80
2021/07/05 01:48:01;;;;;;;0.95;0.68;;;15.40;91.30;;;;;;5064006;28;20387;-82
2021/07/05 01:50:27;;;;;;;1.40;0.90;;;15.40;91.40;;;;;;5030294;28;20037;-82
2021/07/05 01:52:53;;;;;;;0.88;0.60;;;15.40;91.60;;;;;;5028907;28;20107;-82
2021/07/05 01:55:29;;;;;;;1.73;0.60;;;15.40;91.50;;;;;;5030317;28;20037;-82
2021/07/05 01:57:55;;;;;;;1.20;0.60;;;15.40;91.50;;;;;;5030411;28;20022;-82
2021/07/05 02:00:21;;;;;;;1.00;0.60;;;15.40;91.50;;;;;;5032610;28;20026;-82
2021/07/05 02:02:47;;;;;;;1.00;0.80;;;15.30;91.20;;;;;;5030954;28;20044;-82
2021/07/05 02:05:17;;;;;;;2.33;0.93;;;15.30;90.60;;;;;;5029997;28;20029;-83
2021/07/05 02:07:43;;;;;;;1.13;0.77;;;15.30;91.00;;;;;;5061977;28;20481;-82
2021/07/05 02:10:16;;;;;;;1.20;0.60;;;15.30;91.50;;;;;;5029973;28;20477;-82
2021/07/05 02:12:42;;;;;;;1.38;0.80;;;15.30;91.40;;;;;;5046438;28;20029;-83
2021/07/05 02:15:11;;;;;;;2.17;0.98;;;15.40;91.90;;;;;;5033362;28;20025;-82
2021/07/05 02:17:37;;;;;;;1.33;1.10;;;15.40;91.30;;;;;;5029491;28;20048;-83
2021/07/05 02:20:10;;;;;;;1.15;0.77;;;15.40;91.30;;;;;;5061649;28;20481;-82
2021/07/05 02:22:36;;;;;;;2.90;1.00;;;15.40;91.10;;;;;;5029756;28;20080;-83
2021/07/05 02:25:07;;;;;;;2.17;0.80;;;15.30;91.30;;;;;;5061679;28;20030;-83
2021/07/05 02:27:33;;;;;;;1.13;0.75;;;15.30;91.00;;;;;;5031080;28;20038;-82
2021/07/05 02:30:00;;;;;;;1.10;0.80;;;15.30;91.50;;;;;;5033201;28;20501;-83
2021/07/05 02:32:25;;;;;;;1.13;0.70;;;15.40;91.30;;;;;;5029249;28;20033;-82
2021/07/05 02:34:51;;;;;;;1.30;0.90;;;15.30;91.10;;;;;;5029522;28;20452;-80
2021/07/05 02:37:17;;;;;;;2.55;0.73;;;15.30;91.30;;;;;;5029602;28;20026;-81
2021/07/05 02:39:43;;;;;;;2.30;0.73;;;15.30;91.10;;;;;;5028737;28;20029;-82
2021/07/05 02:42:08;;;;;;;1.55;0.73;;;15.20;90.70;;;;;;5031398;28;20474;-81
2021/07/05 02:44:34;;;;;;;0.80;0.60;;;15.20;91.10;;;;;;5029298;28;20060;-82
2021/07/05 02:46:59;;;;;;;1.20;0.85;;;15.30;91.20;;;;;;5027749;28;20022;-82
2021/07/05 02:49:25;;;;;;;1.20;0.70;;;15.20;91.00;;;;;;5061022;28;20418;-82
2021/07/05 02:51:51;;;;;;;2.58;0.98;;;15.20;91.10;;;;;;5029317;28;20030;-82
2021/07/05 02:54:16;;;;;;;2.15;0.80;;;15.20;91.20;;;;;;5032304;28;20037;-82
2021/07/05 02:56:42;;;;;;;2.85;0.73;;;15.10;90.70;;;;;;5041306;28;20058;-82
2021/07/05 02:59:07;;;;;;;2.35;0.77;;;15.10;91.10;;;;;;5056378;28;20051;-82
2021/07/05 03:01:33;;;;;;;1.15;0.80;;;15.20;90.80;;;;;;5028469;28;20484;-84
2021/07/05 03:03:59;;;;;;;1.80;0.98;;;15.10;91.00;;;;;;5029124;28;20567;-81
2021/07/05 03:06:24;;;;;;;2.78;0.68;;;15.10;91.30;;;;;;5031283;28;20017;-81
2021/07/05 03:08:50;;;;;;;3.03;1.05;;;15.10;91.30;;;;;;5030197;28;20040;-81
2021/07/05 03:11:16;;;;;;;2.95;0.98;;;15.10;90.80;;;;;;5028796;28;20025;-81
2021/07/05 03:13:41;;;;;;;2.10;0.90;;;15.10;91.10;;;;;;5028827;28;20072;-81
2021/07/05 03:16:07;;;;;;;2.72;1.02;;;15.20;91.10;;;;;;5028553;28;20099;-82
2021/07/05 03:18:33;;;;;;;2.15;1.00;;;15.10;91.10;;;;;;5030557;28;20489;-83
2021/07/05 03:20:58;;;;;;;2.65;1.30;;;15.10;90.90;;;;;;5032217;28;20665;-83
2021/07/05 03:23:25;;;;;;;1.95;1.00;;;15.10;91.30;;;;;;5026571;28;20371;-83
2021/07/05 03:25:52;;;;;;;1.48;0.98;;;15.10;90.80;;;;;;5060805;28;20025;-83
2021/07/05 03:28:19;;;;;;;3.03;1.10;;;15.10;90.80;;;;;;5060425;28;20029;-83
2021/07/05 03:30:46;;;;;;;1.98;1.23;;;15.10;90.60;;;;;;5027218;28;20040;-83
2021/07/05 03:33:12;;;;;;;3.35;1.00;;;15.10;90.70;;;;;;5028061;28;20037;-83
2021/07/05 03:35:38;;;;;;;2.03;1.10;;;15.10;90.60;;;;;;5028584;28;20386;-83
2021/07/05 03:38:05;;;;;;;1.50;1.10;;;15.00;90.00;;;;;;5060521;28;20025;-83
2021/07/05 03:40:33;;;;;;;3.35;1.00;;;15.00;90.40;;;;;;5028595;28;20087;-82
2021/07/05 03:43:00;;;;;;;2.55;1.13;;;15.00;90.30;;;;;;5060494;28;20494;-82
2021/07/05 03:45:28;;;;;;;3.10;1.10;;;15.00;91.20;;;;;;5030231;28;20096;-82
2021/07/05 03:47:56;;;;;;;2.60;1.20;;;15.00;90.30;;;;;;5029425;28;20046;-83
2021/07/05 03:50:22;;;;;;;1.50;1.10;;;14.90;90.00;;;;;;5028460;28;20112;-82
2021/07/05 03:52:48;;;;;;;2.03;1.00;;;14.90;90.10;;;;;;5060390;28;20037;-82
2021/07/05 03:55:17;;;;;;;1.35;0.82;;;14.90;90.50;;;;;;5028504;28;20018;-82
2021/07/05 03:57:43;;;;;;;1.95;0.90;;;14.80;89.80;;;;;;5016700;28;20038;-82
2021/07/05 04:00:14;;;;;;;4.40;1.08;;;14.80;90.10;;;;;;5031160;28;20021;-83
2021/07/05 04:02:40;;;;;;;1.63;1.13;;;14.80;90.60;;;;;;5028353;28;20022;-82
2021/07/05 04:05:07;;;;;;;2.85;1.05;;;14.90;90.40;;;;;;5028246;28;20029;-82
2021/07/05 04:07:33;;;;;;;2.22;1.00;;;15.00;90.60;;;;;;5060169;28;20022;-82
2021/07/05 04:09:59;;;;;;;2.70;1.20;;;15.10;90.40;;;;;;5031776;28;20058;-82
2021/07/05 04:12:25;;;;;;;2.58;1.02;;;15.20;90.60;;;;;;5034625;28;20602;-82
2021/07/05 04:14:51;;;;;;;1.90;0.80;;;15.20;90.00;;;;;;5065054;28;20041;-81
2021/07/05 04:17:17;;;;;;;2.33;1.10;;;15.20;90.10;;;;;;5031958;28;20568;-81
2021/07/05 04:19:45;;;;;;;1.63;1.17;;;15.20;90.00;;;;;;5064218;28;20245;-83
2021/07/05 04:22:16;;;;;;;1.60;1.10;;;15.20;90.00;;;;;;5063730;28;20032;-83
2021/07/05 04:24:43;;;;;;;3.08;0.90;;;15.10;89.80;;;;;;5033333;28;20058;-83
2021/07/05 04:27:10;;;;;;;2.50;1.42;;;15.20;90.40;;;;;;5035730;28;20526;-83
2021/07/05 04:29:37;;;;;;;2.05;1.10;;;15.20;90.00;;;;;;5031398;28;20046;-83
2021/07/05 04:32:04;;;;;;;2.38;1.10;;;15.20;90.00;;;;;;5031632;28;20093;-82
2021/07/05 04:34:30;;;;;;;3.28;1.20;;;15.20;90.00;;;;;;5031754;28;20454;-82
2021/07/05 04:36:55;;;;;;;1.48;1.00;;;15.20;89.60;;;;;;5032098;28;20076;-82
2021/07/05 04:39:21;;;;;;;2.97;1.10;;;15.20;90.00;;;;;;5033031;28;20022;-82
2021/07/05 04:41:47;;;;;;;1.30;1.00;;;15.30;90.00;;;;;;5065676;28;20433;-82
2021/07/05 04:44:13;;;;;;;2.83;1.25;;;15.30;89.70;;;;;;5063633;28;20025;-82
2021/07/05 04:46:45;;;;;;;1.50;1.08;;;15.30;89.60;;;;;;5031539;28;20051;-82
2021/07/05 04:49:11;;;;;;;1.83;1.10;;;15.40;90.00;;;;;;5031605;28;20049;-84
2021/07/05 04:51:36;;;;;;;2.15;1.10;;;15.40;90.00;;;;;;5031487;28;20388;-84
2021/07/05 04:54:02;;;;;;;2.03;0.98;;;15.40;90.00;;;;;;5033797;28;20022;-82
2021/07/05 04:56:27;;;;;;;2.05;1.30;;;15.40;89.60;;;;;;5031254;28;20022;-83
2021/07/05 04:58:53;;;;;;;1.85;1.20;;;15.40;89.90;;;;;;5058249;28;20092;-81
2021/07/05 05:01:19;;;;;;;4.90;1.20;;;15.40;89.60;;;;;;5021526;28;20048;-81
2021/07/05 05:03:44;;;;;;;4.63;1.45;;;15.40;89.50;;;;;;5033008;28;20026;-81
2021/07/05 05:06:10;;;;;;;1.70;1.10;;;15.30;89.30;;;;;;5034570;28;20022;-82
2021/07/05 05:08:35;;;;;;;3.25;1.48;;;15.30;90.00;;;;;;5029970;28;20547;-81
2021/07/05 05:11:01;;;;;;;3.03;1.35;;;15.40;90.00;;;;;;5030442;28;20547;-84
2021/07/05 05:13:28;;;;;;;2.83;1.77;;;15.50;90.30;;;;;;5063073;28;20033;-82
2021/07/05 05:15:54;;;;;;;3.92;1.48;;;15.50;89.90;;;;;;5032574;28;20029;-82
2021/07/05 05:18:20;;;;;;;3.80;1.58;;;15.60;89.90;;;;;;5033622;28;20022;-83
2021/07/05 05:20:46;;;;;;;3.17;1.40;;;15.60;89.10;;;;;;5029910;28;20508;-82
2021/07/05 05:23:11;;;;;;;1.92;1.55;;;15.50;89.30;;;;;;5031017;28;20116;-82
2021/07/05 05:25:37;;;;;;;1.95;1.30;;;15.50;89.80;;;;;;5062387;28;22118;-82
2021/07/05 05:28:03;;;;;;;3.22;1.80;;;15.60;89.80;;;;;;5030706;28;20037;-82
2021/07/05 05:30:29;;;;;;;2.13;1.60;;;15.60;89.10;;;;;;5032514;28;20076;-82
2021/07/05 05:32:56;;;;;;;2.78;1.40;;;15.60;90.00;;;;;;5023737;28;20084;-82
2021/07/05 05:35:24;;;;;;;5.03;1.38;;;15.70;89.50;;;;;;5026049;28;20030;-82
2021/07/05 05:37:52;;;;;;;2.00;1.48;;;15.70;89.60;;;;;;5031084;28;20034;-82
2021/07/05 05:40:18;;;;;;;2.17;1.52;;;15.70;90.00;;;;;;5031290;28;20022;-83
2021/07/05 05:42:44;;;;;;;2.90;1.50;;;15.70;89.50;;;;;;5031569;28;20072;-82
2021/07/05 05:45:10;;;;;;;2.30;1.40;;;15.70;89.00;;;;;;5033330;28;20017;-83
2021/07/05 05:47:36;;;;;;;4.40;1.25;;;15.70;89.10;;;;;;5029868;28;20750;-83
2021/07/05 05:50:02;;;;;;;3.22;1.30;;;15.70;88.80;;;;;;5031882;28;20481;-82
2021/07/05 05:52:28;;;;;;;3.33;1.30;;;15.60;88.90;;;;;;5030519;28;20021;-82
2021/07/05 05:54:54;;;;;;;1.98;1.10;;;15.50;88.70;;;;;;5030073;28;20029;-82
2021/07/05 05:57:26;;;;;;;3.22;1.20;;;15.60;89.20;;;;;;5031641;28;20509;-82
2021/07/05 05:59:57;;;;;;;2.90;1.13;;;15.60;89.60;;;;;;5033228;28;20465;-83
2021/07/05 06:02:24;;;;;;;2.38;1.00;;;15.70;89.20;;;;;;5030056;28;20026;-82
2021/07/05 06:04:50;;;;;;;1.83;1.48;;;15.80;88.90;;;;;;5061903;28;20686;-83
2021/07/05 06:07:15;;;;;;;2.72;1.73;;;15.70;88.00;;;;;;5029753;28;20029;-83
2021/07/05 06:09:42;;;;;;;2.17;1.75;;;15.70;88.30;;;;;;5028913;28;20167;-83
2021/07/05 06:12:08;;;;;;;2.65;1.88;;;15.70;87.70;;;;;;5032586;28;20107;-82
2021/07/05 06:14:34;;;;;;;2.42;1.85;;;15.70;88.20;;;;;;5061030;28;20087;-84
2021/07/05 06:16:59;;;;;;;3.38;1.30;;;15.80;88.70;;;;;;5029733;28;20036;-83
2021/07/05 06:19:25;;;;;;;2.83;1.42;;;15.90;88.60;;;;;;5063003;28;20030;-83
2021/07/05 06:21:51;;;;;;;2.10;1.88;;;15.90;88.10;;;;;;5051798;28;20561;-83
2021/07/05 06:24:16;;;;;;;3.95;1.67;;;15.90;88.00;;;;;;5032407;28;20031;-83
2021/07/05 06:26:42;;;;;;;1.30;1.10;;;16.00;89.10;;;;;;5028783;28;20477;-84
2021/07/05 06:29:08;;;;;;;2.05;1.30;;;16.00;88.00;;;;;;5029432;28;20482;-84
2021/07/05 06:31:36;;;;;;;1.98;1.20;;;16.00;87.70;;;;;;5029797;28;20648;-84
2021/07/05 06:34:03;;;;;;;1.98;0.95;;;16.00;88.00;;;;;;5028368;28;20076;-84
2021/07/05 06:36:29;;;;;;;3.78;1.10;;;16.00;87.70;;;;;;5025907;28;20071;-86
2021/07/05 06:38:56;;;;;;;3.20;1.35;;;16.10;87.70;;;;;;5027825;28;20021;-86
2021/07/05 06:41:24;;;;;;;4.45;1.42;;;16.10;87.90;;;;;;5054374;28;21312;-86
2021/07/05 06:43:51;;;;;;;2.40;1.30;;;16.30;88.60;;;;;;5025574;28;20022;-85
2021/07/05 06:46:16;;;;;;;4.90;1.10;;;16.40;89.20;;;;;;5029134;28;20022;-86
2021/07/05 06:48:42;;;;;;;2.65;1.23;;;16.50;87.70;;;;;;5029578;28;20079;-86
2021/07/05 06:51:08;;;;;;;2.10;1.27;;;16.50;85.90;;;;;;5030830;28;20060;-86
2021/07/05 06:53:34;;;;;;;3.45;1.30;;;16.40;85.90;;;;;;5027787;28;20417;-86
2021/07/05 06:55:59;;;;;;;1.58;1.27;;;16.30;86.30;;;;;;5027826;28;20393;-86
2021/07/05 06:58:25;;;;;;;3.38;1.42;;;16.40;87.70;;;;;;5027700;28;20028;-87
2021/07/05 07:00:51;;;;;;;1.30;1.15;;;16.60;88.40;;;;;;5028430;28;20037;-87
2021/07/05 07:03:17;;;;;;;2.13;1.20;;;16.80;87.80;;;;;;5031594;28;20021;-87
2021/07/05 07:05:42;;;;;;;1.58;1.20;;;16.90;88.00;;;;;;5060453;28;20025;-88
2021/07/05 07:08:08;;;;;;;2.50;1.20;;;17.10;87.70;;;;;;5059667;28;20037;-90
2021/07/05 07:10:34;;;;;;;2.03;1.10;;;17.20;87.30;;;;;;5028331;28;20428;-88
2021/07/05 07:13:00;;;;;;;1.30;1.20;;;17.40;87.10;;;;;;5028736;28;20091;-88
2021/07/05 07:15:48;;;;;;;2.42;1.38;;;17.50;87.10;;;;;;5030617;28;20029;-87
2021/07/05 07:21:03;;;;;;;3.05;1.15;;;17.60;85.60;;;;;;5029804;28;20033;-79
2021/07/05 07:23:29;;;;;;;3.15;1.20;;;17.50;85.60;;;;;;5027593;28;20563;-76
2021/07/05 07:25:55;;;;;;;1.70;0.98;;;17.40;85.60;;;;;;5032534;28;20021;-76
2021/07/05 07:28:21;;;;;;;1.35;1.00;;;17.30;85.20;;;;;;5029928;28;20381;-75
2021/07/05 07:30:46;;;;;;;4.32;1.10;;;17.30;84.30;;;;;;5031420;28;20076;-80
2021/07/05 07:33:12;;;;;;;3.47;0.98;;;17.30;85.00;;;;;;5034208;28;20021;-78
2021/07/05 07:35:37;;;;;;;3.00;0.80;;;17.40;85.20;;;;;;5027652;28;20424;-84
2021/07/05 07:38:04;;;;;;;2.60;0.93;;;17.40;84.50;;;;;;5033641;28;20048;-82
2021/07/05 07:40:36;;;;;;;1.33;0.80;;;17.40;85.60;;;;;;5029349;28;20057;-76
2021/07/05 07:43:02;;;;;;;2.00;1.05;;;17.50;85.20;;;;;;5030428;28;20035;-76
2021/07/05 07:45:28;;;;;;;1.13;0.77;;;17.60;85.30;;;;;;5031574;28;20034;-76
2021/07/05 07:47:54;;;;;;;1.73;0.88;;;17.60;85.50;;;;;;5041449;28;20060;-76
2021/07/05 07:50:20;;;;;;;2.35;0.80;;;17.70;85.10;;;;;;5032491;28;20025;-76
2021/07/05 07:52:46;;;;;;;1.92;0.88;;;17.80;84.80;;;;;;5032319;28;20401;-76
2021/07/05 07:55:13;;;;;;;2.35;0.70;;;17.80;83.70;;;;;;5030087;28;20021;-75
2021/07/05 07:57:40;;;;;;;3.47;0.75;;;17.80;83.90;;;;;;5031314;28;20030;-76
2021/07/05 08:00:09;;;;;;;1.58;0.70;;;17.70;83.30;;;;;;5036421;28;20017;-75
2021/07/05 08:02:34;;;;;;;1.35;0.75;;;17.70;82.70;;;;;;5032926;28;20132;-75
2021/07/05 08:05:00;;;;;;;1.50;0.70;;;17.80;84.30;;;;;;5032236;28;20018;-76
2021/07/05 08:07:26;;;;;;;0.98;0.75;;;17.90;83.80;;;;;;5031219;28;20032;-76
2021/07/05 08:09:54;;;;;;;2.72;1.02;;;18.00;83.40;;;;;;5030673;28;20114;-76
2021/07/05 08:12:19;;;;;;;0.88;0.60;;;18.10;84.30;;;;;;5033301;28;20531;-77
2021/07/05 08:14:45;;;;;;;2.53;0.68;;;18.10;82.50;;;;;;5033487;28;20107;-76
2021/07/05 08:17:11;;;;;;;1.38;0.70;;;18.30;82.20;;;;;;5028083;28;20025;-77
2021/07/05 08:19:36;;;;;;;4.65;0.93;;;18.40;83.20;;;;;;5028931;28;20038;-76
2021/07/05 08:22:02;;;;;;;1.35;0.70;;;18.50;83.80;;;;;;5026324;28;20028;-76
2021/07/05 08:24:28;;;;;;;1.73;0.80;;;18.70;81.70;;;;;;5028814;28;20506;-76
2021/07/05 08:26:54;;;;;;;1.65;0.70;;;18.80;82.90;;;;;;5039812;28;20060;-76
2021/07/05 08:29:20;;;;;;;2.10;0.80;;;18.80;80.90;;;;;;5029917;28;20559;-77
2021/07/05 08:31:45;;;;;;;5.10;0.70;;;18.70;79.90;;;;;;5028675;28;20022;-77
2021/07/05 08:34:11;;;;;;;1.08;0.68;;;18.60;80.50;;;;;;5059255;28;20092;-76
2021/07/05 08:36:40;;;;;;;0.98;0.63;;;18.70;81.20;;;;;;5027914;28;20088;-76
2021/07/05 08:39:06;;;;;;;1.95;0.50;;;18.70;80.20;;;;;;5041390;28;20025;-75
2021/07/05 08:41:32;;;;;;;0.98;0.60;;;18.70;79.90;;;;;;5054614;28;20149;-77
2021/07/05 08:43:58;;;;;;;5.88;0.65;;;18.60;79.70;;;;;;5027453;28;20556;-76
2021/07/05 08:46:25;;;;;;;1.35;0.57;;;18.50;79.70;;;;;;5029912;28;20053;-75
2021/07/05 08:48:51;;;;;;;1.40;0.80;;;18.70;81.10;;;;;;5027287;28;20509;-77
2021/07/05 08:51:19;;;;;;;1.67;0.55;;;18.90;81.80;;;;;;5031184;28;20389;-76
2021/07/05 08:53:46;;;;;;;2.25;0.70;;;19.10;80.30;;;;;;5030440;28;20022;-75
2021/07/05 08:56:13;;;;;;;2.65;0.60;;;19.10;78.70;;;;;;5030548;28;20070;-76
2021/07/05 08:58:40;;;;;;;2.05;0.65;;;19.40;81.10;;;;;;5064012;28;20413;-76
2021/07/05 09:01:07;;;;;;;2.38;0.73;;;19.50;78.40;;;;;;5064077;28;20389;-77
2021/07/05 09:03:35;;;;;;;1.15;0.60;;;19.50;77.70;;;;;;5060241;28;20413;-77
2021/07/05 09:06:12;;;;;;;2.90;0.80;;;19.30;77.60;;;;;;5035006;28;20017;-76
2021/07/05 09:08:40;;;;;;;0.95;0.75;;;19.10;78.30;;;;;;5032147;28;20041;-75
2021/07/05 09:11:11;;;;;;;1.50;0.95;;;18.90;78.90;;;;;;5057976;28;20026;-76
2021/07/05 09:13:53;;;;;;;0.90;0.70;;;18.80;79.80;;;;;;5031534;28;20034;-77
2021/07/05 09:16:39;;;;;;;1.52;0.77;;;18.80;79.90;;;;;;5032500;28;20113;-77
2021/07/05 09:19:19;;;;;;;3.10;0.90;;;18.80;80.30;;;;;;5032295;28;20061;-77
2021/07/05 09:21:51;;;;;;;1.20;0.70;;;18.90;81.80;;;;;;5027039;28;20029;-77
2021/07/05 09:24:27;;;;;;;2.05;1.10;;;19.10;81.40;;;;;;5030362;28;20083;-75
2021/07/05 09:27:21;;;;;;;1.23;0.70;;;19.20;81.30;;;;;;5032545;28;20060;-76
2021/07/05 09:29:48;;;;;;;2.17;0.80;;;19.40;81.00;;;;;;5044350;28;20037;-77
2021/07/05 09:32:25;;;;;;;1.42;0.80;;;19.50;80.30;;;;;;5026989;28;20100;-76
2021/07/05 09:34:51;;;;;;;2.88;0.70;;;19.50;80.20;;;;;;5030873;28;20184;-77
2021/07/05 09:37:25;;;;;;;1.13;0.80;;;19.50;79.90;;;;;;5035728;28;20126;-77
2021/07/05 09:40:03;;;;;;;1.25;0.70;;;19.60;79.50;;;;;;5017518;28;20044;-75
2021/07/05 09:42:31;;;;;;;1.98;0.60;;;19.50;77.10;;;;;;5033108;28;20417;-77
2021/07/05 09:44:57;;;;;;;2.67;0.70;;;19.40;78.20;;;;;;5036239;28;20072;-76
2021/07/05 09:47:26;;;;;;;1.70;0.70;;;19.40;78.50;;;;;;5034050;28;20010;-76
2021/07/05 09:49:54;;;;;;;2.30;0.82;;;19.30;78.30;;;;;;5067678;28;20041;-77
2021/07/05 09:52:25;;;;;;;1.15;0.60;;;19.30;79.40;;;;;;5067788;28;20025;-76
2021/07/05 09:54:59;;;;;;;1.73;0.70;;;19.30;78.10;;;;;;5030115;28;20121;-76
2021/07/05 09:57:49;;;;;;;1.58;0.70;;;19.20;78.80;;;;;;5030370;28;20043;-77
2021/07/05 10:00:26;;;;;;;1.63;0.60;;;19.30;79.20;;;;;;5027783;28;20560;-76
2021/07/05 10:03:04;;;;;;;1.63;0.50;;;19.40;79.60;;;;;;5051790;28;20037;-77
2021/07/05 10:05:33;;;;;;;1.27;0.60;;;19.50;79.30;;;;;;5030120;28;20036;-77
2021/07/05 10:08:08;;;;;;;2.72;0.60;;;19.60;78.70;;;;;;5031065;28;20083;-77
2021/07/05 10:10:37;;;;;;;0.73;0.60;;;19.60;78.40;;;;;;5061095;28;20025;-77
2021/07/05 10:13:06;;;;;;;1.20;0.55;;;19.70;76.90;;;;;;5028283;28;20034;-77
2021/07/05 10:15:33;;;;;;;1.95;0.77;;;19.80;76.50;;;;;;5031554;28;20029;-76
2021/07/05 10:18:00;;;;;;;1.60;0.70;;;19.80;75.70;;;;;;5032304;28;20029;-78
2021/07/05 10:20:32;;;;;;;1.80;0.50;;;19.70;76.30;;;;;;5032244;28;20009;-76
2021/07/05 10:23:00;;;;;;;1.73;0.80;;;19.60;75.80;;;;;;5034926;28;20366;-77
2021/07/05 10:25:28;;;;;;;1.10;0.70;;;19.60;76.60;;;;;;5035355;28;20477;-74
2021/07/05 10:27:55;;;;;;;1.08;0.60;;;19.60;75.00;;;;;;5031710;28;20030;-78
2021/07/05 10:30:22;;;;;;;1.17;0.55;;;19.50;75.00;;;;;;5033730;28;20033;-76
2021/07/05 10:32:48;;;;;;;2.65;0.50;;;19.60;76.20;;;;;;5044641;28;20411;-77
2021/07/05 10:35:17;;;;;;;1.45;0.77;;;19.50;74.60;;;;;;5034936;28;20678;-79
2021/07/05 10:37:52;;;;;;;1.20;0.60;;;19.60;76.30;;;;;;5032611;28;20023;-77
2021/07/05 10:40:18;;;;;;;1.65;0.63;;;19.80;75.40;;;;;;5033559;28;20021;-77
2021/07/05 10:42:53;;;;;;;2.03;0.77;;;19.80;74.20;;;;;;5046591;28;20022;-78
2021/07/05 10:45:19;;;;;;;2.33;0.75;;;19.80;73.70;;;;;;5034607;28;20037;-81
2021/07/05 10:47:54;;;;;;;1.48;0.80;;;19.70;73.30;;;;;;5032444;28;20049;-80
2021/07/05 10:50:42;;;;;;;1.48;0.70;;;19.70;73.80;;;;;;5029576;28;20025;-83
2021/07/05 10:53:09;;;;;;;3.35;0.70;;;19.70;73.80;;;;;;5045162;28;20097;-78
2021/07/05 10:55:40;;;;;;;3.00;0.88;;;19.70;73.10;;;;;;5025545;28;20025;-79
2021/07/05 10:58:31;;;;;;;1.25;0.90;;;19.70;73.30;;;;;;5030201;28;20040;-76
2021/07/05 11:01:00;;;;;;;1.40;0.77;;;19.70;72.80;;;;;;5028406;28;20580;-76
2021/07/05 11:03:41;;;;;;;11.68;5.32;;;19.70;72.70;;;;;;5031933;28;20025;-77
2021/07/05 11:06:25;;;;;;;1.63;1.00;;;19.70;72.00;;;;;;5032250;28;20116;-77
2021/07/05 11:08:52;;;;;;;1.10;0.82;;;19.60;70.50;;;;;;5035325;28;20044;-77
2021/07/05 11:11:26;;;;;;;1.33;0.82;;;19.50;71.20;;;;;;5033554;28;20029;-76
2021/07/05 11:14:20;;;;;;;1.98;0.80;;;19.30;70.70;;;;;;5028781;28;20032;-78
2021/07/05 11:17:04;;;;;;;;;;;19.40;71.80;;;;;;5030998;28;20055;-78
2021/07/05 11:19:50;;;;;;;2.15;0.88;;;19.40;72.90;;;;;;5030782;28;20411;-76
2021/07/05 11:22:27;;;;;;;2.45;0.93;;;19.40;72.90;;;;;;5028241;28;20147;-76
2021/07/05 11:25:18;;;;;;;1.15;0.73;;;19.50;73.00;;;;;;5026156;28;20030;-75
2021/07/05 11:27:47;;;;;;;1.77;0.73;;;19.40;72.00;;;;;;5041033;28;20033;-78
2021/07/05 11:30:23;;;;;;;2.90;1.00;;;19.50;73.10;;;;;;5029685;28;20027;-79
2021/07/05 11:32:55;;;;;;;2.40;1.00;;;19.50;70.70;;;;;;5032654;28;20111;-77
2021/07/05 11:35:36;;;;;;;1.75;0.90;;;19.40;71.60;;;;;;5053408;28;20084;-79
2021/07/05 11:38:04;;;;;;;1.90;1.02;;;19.30;72.00;;;;;;5048317;28;20030;-75
2021/07/05 11:41:11;;;;;;;1.40;0.70;;;19.20;72.50;;;;;;5029361;28;20021;-78
2021/07/05 11:43:39;;;;;;;2.50;1.10;;;19.30;73.40;;;;;;4987703;28;20565;-76
2021/07/05 11:46:07;;;;;;;2.67;1.30;;;19.20;73.00;;;;;;4985139;28;20175;-77
2021/07/05 11:48:41;;;;;;;3.50;1.02;;;19.30;73.60;;;;;;4988321;28;20051;-80
2021/07/05 11:51:37;;;;;;;3.13;1.10;;;19.30;72.80;;;;;;4995617;28;20089;-78
2021/07/05 11:54:08;;;;;;;1.75;0.80;;;19.30;73.30;;;;;;4989284;28;20069;-80
2021/07/05 11:56:38;;;;;;;2.75;1.20;;;19.30;72.90;;;;;;4973924;28;20407;-81
2021/07/05 11:59:10;;;;;;;2.47;0.98;;;19.30;72.10;;;;;;4993436;28;20050;-81
2021/07/05 12:01:37;;;;;;;2.38;0.95;;;19.40;73.80;;;;;;4938917;28;20693;-79
2021/07/05 12:04:04;;;;;;;1.77;1.10;;;19.50;73.40;;;;;;4984808;28;20118;-82
2021/07/05 12:06:31;;;;;;;2.35;1.08;;;19.50;72.40;;;;;;4983660;28;20077;-79
2021/07/05 12:09:00;;;;;;;2.78;1.30;;;19.80;73.40;;;;;;4992103;28;20601;-76
2021/07/05 12:11:49;;;;;;;3.05;1.00;;;20.00;74.20;;;;;;4988949;28;20036;-75
2021/07/05 12:14:24;;;;;;;2.90;1.10;;;20.30;72.70;;;;;;4989511;28;20061;-74
2021/07/05 12:16:55;;;;;;;2.58;0.90;;;20.30;71.20;;;;;;4984977;28;20660;-75
2021/07/05 12:19:22;;;;;;;1.88;0.95;;;20.20;72.20;;;;;;5001949;28;20037;-74
2021/07/05 12:21:52;;;;;;;3.05;0.98;;;20.20;72.30;;;;;;5058401;28;20234;-77
2021/07/05 12:24:20;;;;;;;1.67;1.00;;;19.90;69.70;;;;;;5028347;28;20025;-80
2021/07/05 12:26:49;;;;;;;1.55;0.90;;;19.60;71.40;;;;;;5033846;28;20512;-77
2021/07/05 12:29:28;;;;;;;2.20;1.10;;;19.50;71.90;;;;;;5029849;28;20167;-86
2021/07/05 12:31:57;;;;;;;2.70;0.93;;;19.40;72.30;;;;;;5066234;28;20400;-77
2021/07/05 12:35:08;;;;;;;2.83;1.15;;;19.20;72.40;;;;;;5025082;28;20065;-76
2021/07/05 12:37:47;;;;;;;2.10;1.10;;;19.10;73.30;;;;;;5026216;28;20554;-79
2021/07/05 12:40:26;;;;;;;3.08;1.02;;;18.90;74.70;;;;;;5034791;28;20036;-77
2021/07/05 12:42:53;;;;;;;2.67;0.98;;;18.90;75.10;;;;;;5014128;28;20033;-74
2021/07/05 12:45:28;;;;;;;2.63;1.08;;;18.80;75.20;;;;;;5036730;28;20025;-74
2021/07/05 12:48:10;;;;;;;1.90;0.82;;;18.70;75.10;;;;;;5049571;28;20048;-78
2021/07/05 12:50:42;;;;;;;3.17;0.77;;;18.60;75.90;;;;;;5040550;28;20048;-76
2021/07/05 12:53:12;;;;;;;1.52;0.60;;;18.50;76.50;;;;;;5039808;28;20022;-75
2021/07/05 12:55:56;;;;;;;2.60;0.98;;;18.30;76.60;;;;;;5033816;28;20039;-75
2021/07/05 12:58:49;;;;;;;2.42;0.85;;;18.20;77.10;;;;;;5034494;28;20496;-75